createdAt,value
2022-11-29T00:04:45.043Z,4.55
2022-11-29T00:09:46.684Z,4.93
2022-11-29T00:14:48.143Z,4.35
2022-11-29T00:19:49.598Z,4.65
2022-11-29T00:24:51.912Z,5.45
2022-11-29T00:29:53.344Z,5.07
2022-11-29T00:34:58.253Z,5.65
2022-11-29T00:40:00.885Z,4.97
2022-11-29T00:45:02.382Z,5.53
2022-11-29T00:50:04.676Z,5.07
2022-11-29T00:55:06.499Z,4.55
2022-11-29T01:00:08.512Z,5.32
2022-11-29T01:05:09.977Z,5.18
2022-11-29T01:10:11.439Z,4.80
2022-11-29T01:15:13.010Z,5.18
2022-11-29T01:20:15.480Z,5.28
2022-11-29T01:25:17.299Z,4.90
2022-11-29T01:30:19.219Z,5.10
2022-11-29T01:35:20.662Z,5.10
2022-11-29T01:40:22.154Z,4.78
2022-11-29T01:45:26.403Z,4.78
2022-11-29T01:50:27.880Z,3.97
2022-11-29T01:55:29.390Z,4.93
2022-11-29T02:00:30.885Z,4.60
2022-11-29T02:05:33.126Z,4.30
2022-11-29T02:10:46.583Z,4.05
2022-11-29T02:16:03.179Z,3.70
2022-11-29T02:21:07.378Z,3.88
2022-11-29T02:26:42.471Z,3.65
2022-11-29T02:32:00.827Z,3.85
2022-11-29T02:37:47.807Z,3.60
2022-11-29T02:43:18.229Z,4.10
2022-11-29T02:53:27.835Z,4.25
2022-11-29T02:58:47.348Z,3.95
2022-11-29T03:04:27.117Z,3.80
2022-11-29T03:09:45.640Z,4.20
2022-11-29T03:14:57.195Z,4.10
2022-11-29T03:20:06.208Z,4.03
2022-11-29T03:25:22.174Z,3.78
2022-11-29T03:30:23.780Z,4.22
2022-11-29T03:35:46.279Z,3.70
2022-11-29T03:40:50.639Z,3.58
2022-11-29T03:46:02.099Z,2.88
2022-11-29T03:51:11.339Z,2.97
2022-11-29T03:56:27.285Z,3.45
2022-11-29T04:01:54.001Z,3.40
2022-11-29T04:07:26.973Z,3.03
2022-11-29T04:12:38.479Z,3.67
2022-11-29T04:17:58.301Z,3.00
2022-11-29T04:23:17.947Z,3.47
2022-11-29T04:28:43.503Z,3.08
2022-11-29T04:34:03.579Z,3.33
2022-11-29T04:44:27.317Z,2.70
2022-11-29T04:49:44.802Z,2.72
2022-11-29T04:54:59.889Z,3.25
2022-11-29T05:00:15.254Z,3.17
2022-11-29T05:05:31.976Z,2.70
2022-11-29T05:10:59.610Z,3.13
2022-11-29T05:16:37.133Z,3.10
2022-11-29T05:22:15.956Z,3.58
2022-11-29T05:27:36.654Z,3.33
2022-11-29T05:32:55.712Z,4.00
2022-11-29T05:38:02.474Z,3.63
2022-11-29T05:43:19.479Z,3.17
2022-11-29T05:48:29.597Z,3.20
2022-11-29T05:53:42.932Z,3.00
2022-11-29T05:59:05.409Z,4.05
2022-11-29T06:04:22.039Z,3.35
2022-11-29T06:09:32.230Z,3.40
2022-11-29T06:14:52.462Z,3.47
2022-11-29T06:20:08.567Z,3.85
2022-11-29T06:25:21.369Z,2.90
2022-11-29T06:30:55.238Z,3.75
2022-11-29T06:36:19.910Z,3.13
2022-11-29T06:41:24.339Z,3.60
2022-11-29T06:46:56.000Z,3.28
2022-11-29T06:52:09.977Z,3.08
2022-11-29T06:58:10.080Z,3.53
2022-11-29T07:03:47.838Z,3.33
2022-11-29T07:08:53.840Z,2.97
2022-11-29T07:13:55.825Z,3.22
2022-11-29T07:19:10.166Z,2.80
2022-11-29T07:24:20.315Z,3.38
2022-11-29T07:29:29.544Z,3.47
2022-11-29T07:34:47.511Z,2.95
2022-11-29T07:40:15.978Z,3.85
2022-11-29T07:45:30.730Z,4.55
2022-11-29T07:50:32.600Z,3.80
2022-11-29T07:55:34.211Z,4.22
2022-11-29T08:00:35.727Z,4.00
2022-11-29T08:05:38.252Z,4.53
2022-11-29T08:10:39.680Z,4.40
2022-11-29T08:15:45.720Z,4.30
2022-11-29T08:20:47.129Z,4.32
2022-11-29T08:25:48.588Z,4.32
2022-11-29T08:30:50.042Z,3.78
2022-11-29T08:35:51.444Z,3.90
2022-11-29T08:40:52.907Z,3.63
2022-11-29T08:45:54.367Z,4.00
2022-11-29T08:50:56.621Z,4.32
2022-11-29T08:55:59.575Z,4.20
2022-11-29T09:01:01.074Z,5.20
2022-11-29T09:06:14.031Z,5.30
2022-11-29T09:11:18.501Z,5.32
2022-11-29T09:16:22.475Z,5.60
2022-11-29T09:21:25.944Z,4.93
2022-11-29T09:26:30.263Z,5.43
2022-11-29T09:31:33.155Z,4.43
2022-11-29T09:36:34.637Z,5.25
2022-11-29T09:42:07.535Z,4.60
2022-11-29T09:47:18.552Z,4.47
2022-11-29T09:52:32.113Z,4.40
2022-11-29T09:57:33.675Z,4.72
2022-11-29T10:02:43.659Z,4.35
2022-11-29T10:08:03.380Z,4.82
2022-11-29T10:13:18.824Z,5.75
2022-11-29T10:18:35.020Z,4.40
2022-11-29T10:23:41.754Z,3.72
2022-11-29T10:28:45.021Z,4.68
2022-11-29T10:33:47.374Z,4.55
2022-11-29T10:38:50.284Z,3.75
2022-11-29T10:43:52.021Z,5.07
2022-11-29T10:48:54.026Z,4.50
2022-11-29T10:53:56.555Z,5.00
2022-11-29T10:59:03.902Z,4.05
2022-11-29T11:04:06.850Z,5.65
2022-11-29T11:09:24.936Z,4.80
2022-11-29T11:14:28.252Z,3.30
2022-11-29T11:19:34.540Z,4.97
2022-11-29T11:24:41.828Z,3.00
2022-11-29T11:29:44.739Z,3.40
2022-11-29T11:35:00.087Z,5.30
2022-11-29T11:40:26.748Z,3.75
2022-11-29T11:45:33.892Z,3.63
2022-11-29T11:50:51.536Z,3.80
2022-11-29T11:56:01.486Z,3.40
2022-11-29T12:01:11.780Z,3.38
2022-11-29T12:06:19.607Z,3.65
2022-11-29T12:11:24.436Z,5.18
2022-11-29T12:16:33.067Z,3.20
2022-11-29T12:21:42.355Z,3.80
2022-11-29T12:26:59.666Z,4.00
2022-11-29T12:32:13.015Z,3.50
2022-11-29T12:37:26.884Z,4.40
2022-11-29T12:42:50.254Z,3.47
2022-11-29T12:48:03.003Z,3.38
2022-11-29T12:53:33.412Z,3.17
2022-11-29T12:59:01.110Z,3.95
2022-11-29T13:04:21.387Z,3.85
2022-11-29T13:09:28.687Z,2.90
2022-11-29T13:14:43.917Z,3.83
2022-11-29T13:19:55.339Z,2.53
2022-11-29T13:25:06.101Z,3.53
2022-11-29T13:30:13.281Z,2.88
2022-11-29T13:35:14.656Z,2.35
2022-11-29T13:40:23.385Z,2.50
2022-11-29T13:45:33.806Z,4.27
2022-11-29T13:50:35.177Z,2.30
2022-11-29T13:55:44.353Z,2.70
2022-11-29T14:00:45.745Z,2.00
2022-11-29T14:05:52.554Z,2.13
2022-11-29T14:11:14.045Z,2.85
2022-11-29T14:16:32.305Z,2.70
2022-11-29T14:22:01.419Z,3.40
2022-11-29T14:27:05.673Z,2.85
2022-11-29T14:32:22.154Z,3.00
2022-11-29T14:37:40.027Z,3.50
2022-11-29T14:42:47.154Z,3.30
2022-11-29T14:47:49.332Z,3.20
2022-11-29T14:52:51.698Z,3.97
2022-11-29T14:58:02.022Z,3.65
2022-11-29T15:03:21.032Z,3.63
2022-11-29T15:08:48.726Z,3.85
2022-11-29T15:14:47.259Z,3.67
2022-11-29T15:20:07.336Z,4.38
2022-11-29T15:30:27.411Z,3.30
2022-11-29T15:35:29.183Z,2.92
2022-11-29T15:40:31.396Z,3.00
2022-11-29T15:45:36.226Z,3.28
2022-11-29T15:50:43.623Z,3.25
2022-11-29T15:55:48.003Z,3.83
2022-11-29T16:00:50.484Z,3.90
2022-11-29T16:06:05.395Z,4.82
2022-11-29T16:11:09.240Z,4.30
2022-11-29T16:16:19.288Z,5.10
2022-11-29T16:21:26.801Z,3.67
2022-11-29T16:44:06.820Z,3.30
2022-11-29T17:05:19.733Z,3.17
2022-11-29T17:36:10.488Z,5.53
2022-11-29T17:41:14.513Z,3.88
2022-11-29T17:46:19.076Z,4.38
2022-11-29T17:51:50.521Z,3.75
2022-11-29T17:56:45.431Z,4.05
2022-11-29T18:01:47.147Z,4.10
2022-11-29T18:06:48.980Z,4.60
2022-11-29T18:11:50.701Z,4.68
2022-11-29T18:16:52.365Z,4.25
2022-11-29T18:21:53.963Z,4.38
2022-11-29T18:26:55.382Z,5.22
2022-11-29T18:31:56.766Z,6.25
2022-11-29T18:36:58.145Z,5.43
2022-11-29T18:41:59.610Z,5.30
2022-11-29T18:47:01.004Z,6.13
2022-11-29T18:52:02.495Z,5.20
2022-11-29T18:57:03.867Z,5.30
2022-11-29T19:02:05.575Z,4.93
2022-11-29T19:07:07.102Z,5.72
2022-11-29T19:12:08.572Z,5.25
2022-11-29T19:17:10.044Z,5.75
2022-11-29T19:22:11.558Z,5.32
2022-11-29T19:27:12.995Z,5.50
2022-11-29T19:32:14.430Z,5.90
2022-11-29T19:37:18.132Z,5.10
2022-11-29T19:42:19.572Z,5.45
2022-11-29T19:47:20.955Z,7.05
2022-11-29T19:52:22.527Z,5.32
2022-11-29T19:57:24.050Z,6.05
2022-11-29T20:02:25.656Z,6.55
2022-11-29T20:07:27.174Z,6.57
2022-11-29T20:12:30.046Z,5.93
2022-11-29T20:17:31.537Z,5.93
2022-11-29T20:22:33.031Z,6.32
2022-11-29T20:27:34.525Z,6.43
2022-11-29T20:32:36.092Z,7.38
2022-11-29T20:37:56.251Z,5.15
2022-11-29T20:43:15.363Z,5.18
2022-11-29T20:48:20.867Z,3.90
2022-11-29T20:53:31.858Z,3.67
2022-11-29T20:58:33.905Z,5.38
2022-11-29T21:03:35.485Z,4.30
2022-11-29T21:08:36.959Z,3.38
2022-11-29T21:13:38.953Z,3.75
2022-11-29T21:18:40.719Z,3.53
2022-11-29T21:23:57.032Z,3.63
2022-11-29T21:29:14.159Z,3.95
2022-11-29T21:34:15.631Z,5.65
2022-11-29T21:39:17.111Z,3.90
2022-11-29T21:44:18.564Z,4.15
2022-11-29T21:49:20.143Z,3.75
2022-11-29T21:54:21.639Z,3.58
2022-11-29T21:59:23.092Z,3.63
2022-11-29T22:04:24.978Z,3.75
2022-11-29T22:09:26.383Z,3.80
2022-11-29T22:14:27.809Z,4.00
2022-11-29T22:19:31.607Z,4.30
2022-11-29T22:24:35.220Z,3.63
2022-11-29T22:29:36.704Z,2.83
2022-11-29T22:34:38.155Z,2.97
2022-11-29T22:39:39.592Z,2.72
2022-11-29T22:44:41.903Z,3.20
2022-11-29T22:49:43.363Z,4.60
2022-11-29T22:54:45.081Z,3.10
2022-11-29T22:59:46.856Z,3.15
2022-11-29T23:04:48.989Z,2.78
2022-11-29T23:09:50.582Z,3.60
2022-11-29T23:14:56.368Z,3.25
2022-11-29T23:19:58.370Z,2.90
2022-11-29T23:24:59.823Z,3.08
2022-11-29T23:30:01.246Z,2.83
2022-11-29T23:35:02.746Z,3.13
2022-11-29T23:40:05.016Z,3.22
2022-11-29T23:45:06.597Z,2.92
2022-11-29T23:50:08.946Z,2.97
2022-11-29T23:55:12.200Z,3.13
